sensor_id;sensor_type;location;lat;lon;timestamp;pressure;altitude;pressure_sealevel;temperature;humidity
75039;BME280;63609;49.992;14.512;2023-07-09T00:03:31;98457.34;;;17.83;42.62
75039;BME280;63609;49.992;14.512;2023-07-09T00:05:58;98453.81;;;17.98;41.90
75039;BME280;63609;49.992;14.512;2023-07-09T00:08:30;98456.13;;;18.01;41.45
75039;BME280;63609;49.992;14.512;2023-07-09T00:10:58;98459.66;;;18.01;42.35
75039;BME280;63609;49.992;14.512;2023-07-09T00:13:27;98458.06;;;18.07;42.20
75039;BME280;63609;49.992;14.512;2023-07-09T00:15:59;98463.19;;;17.43;43.63
75039;BME280;63609;49.992;14.512;2023-07-09T00:18:28;98464.16;;;17.79;42.26
75039;BME280;63609;49.992;14.512;2023-07-09T00:20:55;98460.44;;;17.95;42.55
75039;BME280;63609;49.992;14.512;2023-07-09T00:23:21;98471.38;;;17.94;41.81
75039;BME280;63609;49.992;14.512;2023-07-09T00:25:48;98469.72;;;17.93;41.99
75039;BME280;63609;49.992;14.512;2023-07-09T00:28:16;98465.28;;;17.70;42.32
75039;BME280;63609;49.992;14.512;2023-07-09T00:30:48;98468.22;;;16.93;45.00
75039;BME280;63609;49.992;14.512;2023-07-09T00:33:16;98471.41;;;17.35;44.25
75039;BME280;63609;49.992;14.512;2023-07-09T00:35:46;98472.47;;;17.11;44.52
75039;BME280;63609;49.992;14.512;2023-07-09T00:38:22;98472.28;;;17.12;44.55
75039;BME280;63609;49.992;14.512;2023-07-09T00:41:14;98465.22;;;17.11;44.66
75039;BME280;63609;49.992;14.512;2023-07-09T00:43:46;98463.25;;;17.05;45.07
75039;BME280;63609;49.992;14.512;2023-07-09T00:48:53;98460.47;;;16.99;44.85
75039;BME280;63609;49.992;14.512;2023-07-09T00:51:21;98463.00;;;16.77;45.46
75039;BME280;63609;49.992;14.512;2023-07-09T00:53:52;98461.59;;;16.81;45.53
75039;BME280;63609;49.992;14.512;2023-07-09T00:56:33;98464.88;;;16.91;45.50
75039;BME280;63609;49.992;14.512;2023-07-09T00:59:05;98468.41;;;16.92;45.13
75039;BME280;63609;49.992;14.512;2023-07-09T01:01:34;98463.19;;;16.76;45.23
75039;BME280;63609;49.992;14.512;2023-07-09T01:04:02;98464.16;;;16.52;46.58
75039;BME280;63609;49.992;14.512;2023-07-09T01:06:44;98456.69;;;16.39;46.72
75039;BME280;63609;49.992;14.512;2023-07-09T01:09:13;98452.44;;;16.45;46.50
75039;BME280;63609;49.992;14.512;2023-07-09T01:11:41;98450.44;;;16.39;46.83
75039;BME280;63609;49.992;14.512;2023-07-09T01:14:11;98453.25;;;16.22;47.03
75039;BME280;63609;49.992;14.512;2023-07-09T01:16:46;98461.97;;;16.24;47.67
75039;BME280;63609;49.992;14.512;2023-07-09T01:19:15;98463.75;;;16.40;46.96
75039;BME280;63609;49.992;14.512;2023-07-09T01:21:43;98456.97;;;16.44;47.05
75039;BME280;63609;49.992;14.512;2023-07-09T01:24:14;98462.72;;;16.41;46.28
75039;BME280;63609;49.992;14.512;2023-07-09T01:26:41;98463.88;;;16.47;46.07
75039;BME280;63609;49.992;14.512;2023-07-09T01:29:10;98467.00;;;16.27;47.03
75039;BME280;63609;49.992;14.512;2023-07-09T01:31:38;98471.50;;;16.12;48.05
75039;BME280;63609;49.992;14.512;2023-07-09T01:34:05;98469.03;;;15.94;48.53
75039;BME280;63609;49.992;14.512;2023-07-09T01:36:32;98470.72;;;15.95;48.15
75039;BME280;63609;49.992;14.512;2023-07-09T01:39:01;98468.56;;;15.91;48.02
75039;BME280;63609;49.992;14.512;2023-07-09T01:41:31;98468.97;;;15.72;48.50
75039;BME280;63609;49.992;14.512;2023-07-09T01:44:00;98468.47;;;15.60;49.02
75039;BME280;63609;49.992;14.512;2023-07-09T01:46:27;98473.34;;;15.64;48.61
75039;BME280;63609;49.992;14.512;2023-07-09T01:48:54;98480.53;;;15.80;48.36
75039;BME280;63609;49.992;14.512;2023-07-09T01:51:21;98479.66;;;15.88;47.99
75039;BME280;63609;49.992;14.512;2023-07-09T01:53:51;98467.03;;;15.88;47.81
75039;BME280;63609;49.992;14.512;2023-07-09T01:56:20;98479.16;;;15.92;47.30
75039;BME280;63609;49.992;14.512;2023-07-09T01:58:49;98476.28;;;15.94;47.53
75039;BME280;63609;49.992;14.512;2023-07-09T02:01:15;98476.78;;;15.89;48.14
75039;BME280;63609;49.992;14.512;2023-07-09T02:03:43;98465.34;;;15.87;47.59
75039;BME280;63609;49.992;14.512;2023-07-09T02:06:10;98469.72;;;15.88;47.70
75039;BME280;63609;49.992;14.512;2023-07-09T02:08:37;98465.88;;;15.91;47.64
75039;BME280;63609;49.992;14.512;2023-07-09T02:11:04;98471.75;;;15.86;47.84
75039;BME280;63609;49.992;14.512;2023-07-09T02:13:31;98474.78;;;15.83;47.54
75039;BME280;63609;49.992;14.512;2023-07-09T02:15:58;98472.16;;;15.75;47.81
75039;BME280;63609;49.992;14.512;2023-07-09T02:18:27;98474.13;;;15.81;48.00
75039;BME280;63609;49.992;14.512;2023-07-09T02:20:54;98467.28;;;15.70;47.92
75039;BME280;63609;49.992;14.512;2023-07-09T02:23:26;98475.53;;;15.69;48.47
75039;BME280;63609;49.992;14.512;2023-07-09T02:25:53;98465.97;;;15.58;48.62
75039;BME280;63609;49.992;14.512;2023-07-09T02:28:20;98470.69;;;15.56;48.54
75039;BME280;63609;49.992;14.512;2023-07-09T02:30:47;98474.91;;;15.51;49.27
75039;BME280;63609;49.992;14.512;2023-07-09T02:33:14;98472.06;;;15.44;49.12
75039;BME280;63609;49.992;14.512;2023-07-09T02:35:41;98480.66;;;15.39;49.22
75039;BME280;63609;49.992;14.512;2023-07-09T02:38:08;98483.72;;;15.36;49.00
75039;BME280;63609;49.992;14.512;2023-07-09T02:40:34;98484.25;;;15.16;50.40
75039;BME280;63609;49.992;14.512;2023-07-09T02:43:01;98484.22;;;14.91;50.66
75039;BME280;63609;49.992;14.512;2023-07-09T02:45:28;98481.88;;;14.80;51.38
75039;BME280;63609;49.992;14.512;2023-07-09T02:47:55;98483.56;;;14.89;50.97
75039;BME280;63609;49.992;14.512;2023-07-09T02:50:23;98480.19;;;14.79;51.32
75039;BME280;63609;49.992;14.512;2023-07-09T02:52:49;98483.38;;;14.83;51.00
75039;BME280;63609;49.992;14.512;2023-07-09T02:55:16;98479.19;;;14.88;51.54
75039;BME280;63609;49.992;14.512;2023-07-09T02:57:43;98478.66;;;14.93;50.65
75039;BME280;63609;49.992;14.512;2023-07-09T03:00:11;98485.88;;;15.00;50.64
75039;BME280;63609;49.992;14.512;2023-07-09T03:02:39;98481.69;;;14.98;52.29
75039;BME280;63609;49.992;14.512;2023-07-09T03:05:06;98481.91;;;15.04;51.12
75039;BME280;63609;49.992;14.512;2023-07-09T03:07:33;98485.75;;;15.02;50.58
75039;BME280;63609;49.992;14.512;2023-07-09T03:10:00;98491.47;;;15.15;50.76
75039;BME280;63609;49.992;14.512;2023-07-09T03:12:27;98487.44;;;15.11;51.07
75039;BME280;63609;49.992;14.512;2023-07-09T03:14:54;98482.41;;;15.08;50.75
75039;BME280;63609;49.992;14.512;2023-07-09T03:17:21;98482.06;;;15.11;50.23
75039;BME280;63609;49.992;14.512;2023-07-09T03:19:48;98487.13;;;15.06;50.68
75039;BME280;63609;49.992;14.512;2023-07-09T03:22:14;98505.75;;;15.16;50.28
75039;BME280;63609;49.992;14.512;2023-07-09T03:24:42;98496.00;;;15.15;50.87
75039;BME280;63609;49.992;14.512;2023-07-09T03:27:09;98504.22;;;15.21;50.50
75039;BME280;63609;49.992;14.512;2023-07-09T03:29:36;98510.28;;;15.23;50.65
75039;BME280;63609;49.992;14.512;2023-07-09T03:32:03;98510.94;;;15.01;51.70
75039;BME280;63609;49.992;14.512;2023-07-09T03:34:30;98508.41;;;14.99;51.72
75039;BME280;63609;49.992;14.512;2023-07-09T03:36:57;98513.00;;;15.07;50.67
75039;BME280;63609;49.992;14.512;2023-07-09T03:39:24;98507.44;;;15.08;51.21
75039;BME280;63609;49.992;14.512;2023-07-09T03:41:51;98520.00;;;14.92;51.98
75039;BME280;63609;49.992;14.512;2023-07-09T03:44:17;98510.09;;;14.92;51.92
75039;BME280;63609;49.992;14.512;2023-07-09T03:46:45;98519.69;;;14.87;53.02
75039;BME280;63609;49.992;14.512;2023-07-09T03:49:12;98517.88;;;15.03;52.53
75039;BME280;63609;49.992;14.512;2023-07-09T03:51:39;98515.97;;;14.96;52.90
75039;BME280;63609;49.992;14.512;2023-07-09T03:54:06;98513.78;;;14.99;53.35
75039;BME280;63609;49.992;14.512;2023-07-09T03:56:33;98510.31;;;15.07;52.91
75039;BME280;63609;49.992;14.512;2023-07-09T03:59:00;98507.25;;;15.18;52.51
75039;BME280;63609;49.992;14.512;2023-07-09T04:01:27;98519.34;;;15.30;51.83
75039;BME280;63609;49.992;14.512;2023-07-09T04:03:54;98510.25;;;15.39;52.79
75039;BME280;63609;49.992;14.512;2023-07-09T04:06:22;98514.81;;;15.39;52.62
75039;BME280;63609;49.992;14.512;2023-07-09T04:08:48;98511.91;;;15.49;52.44
75039;BME280;63609;49.992;14.512;2023-07-09T04:11:15;98514.56;;;15.65;52.73
75039;BME280;63609;49.992;14.512;2023-07-09T04:13:42;98515.56;;;15.72;52.20
75039;BME280;63609;49.992;14.512;2023-07-09T04:16:09;98522.25;;;15.84;51.69
75039;BME280;63609;49.992;14.512;2023-07-09T04:18:37;98524.94;;;15.92;50.84
75039;BME280;63609;49.992;14.512;2023-07-09T04:21:04;98520.19;;;16.03;50.64
75039;BME280;63609;49.992;14.512;2023-07-09T04:23:31;98527.16;;;16.20;49.93
75039;BME280;63609;49.992;14.512;2023-07-09T04:25:57;98531.22;;;16.16;49.70
75039;BME280;63609;49.992;14.512;2023-07-09T04:28:25;98540.56;;;15.97;51.50
75039;BME280;63609;49.992;14.512;2023-07-09T04:30:51;98535.91;;;16.22;51.42
75039;BME280;63609;49.992;14.512;2023-07-09T04:33:19;98543.94;;;16.38;50.35
75039;BME280;63609;49.992;14.512;2023-07-09T04:35:48;98542.09;;;16.30;50.83
75039;BME280;63609;49.992;14.512;2023-07-09T04:38:16;98537.22;;;16.57;49.06
75039;BME280;63609;49.992;14.512;2023-07-09T04:40:44;98541.91;;;16.63;48.92
75039;BME280;63609;49.992;14.512;2023-07-09T04:43:11;98540.59;;;16.59;48.69
75039;BME280;63609;49.992;14.512;2023-07-09T04:45:38;98542.88;;;16.78;47.36
75039;BME280;63609;49.992;14.512;2023-07-09T04:48:05;98551.31;;;16.98;47.42
75039;BME280;63609;49.992;14.512;2023-07-09T04:50:33;98542.13;;;16.84;47.91
75039;BME280;63609;49.992;14.512;2023-07-09T04:53:00;98553.66;;;17.01;48.08
75039;BME280;63609;49.992;14.512;2023-07-09T04:55:27;98548.47;;;17.14;47.90
75039;BME280;63609;49.992;14.512;2023-07-09T04:57:54;98555.75;;;17.29;48.15
75039;BME280;63609;49.992;14.512;2023-07-09T05:00:21;98555.72;;;17.37;47.84
75039;BME280;63609;49.992;14.512;2023-07-09T05:02:48;98561.50;;;17.48;47.64
75039;BME280;63609;49.992;14.512;2023-07-09T05:05:15;98560.56;;;17.64;46.75
75039;BME280;63609;49.992;14.512;2023-07-09T05:07:42;98565.28;;;17.77;46.14
75039;BME280;63609;49.992;14.512;2023-07-09T05:10:09;98564.09;;;17.79;46.32
75039;BME280;63609;49.992;14.512;2023-07-09T05:12:47;98565.38;;;17.69;46.48
75039;BME280;63609;49.992;14.512;2023-07-09T05:15:15;98568.00;;;17.77;45.71
75039;BME280;63609;49.992;14.512;2023-07-09T05:17:42;98564.94;;;17.65;46.99
75039;BME280;63609;49.992;14.512;2023-07-09T05:20:09;98567.72;;;18.01;45.41
75039;BME280;63609;49.992;14.512;2023-07-09T05:22:36;98568.56;;;18.02;46.47
75039;BME280;63609;49.992;14.512;2023-07-09T05:25:03;98569.59;;;18.30;46.06
75039;BME280;63609;49.992;14.512;2023-07-09T05:27:30;98570.78;;;18.42;45.19
75039;BME280;63609;49.992;14.512;2023-07-09T05:29:57;98576.84;;;18.15;45.25
75039;BME280;63609;49.992;14.512;2023-07-09T05:32:24;98574.41;;;18.50;44.59
75039;BME280;63609;49.992;14.512;2023-07-09T05:34:51;98559.53;;;18.75;44.03
75039;BME280;63609;49.992;14.512;2023-07-09T05:37:18;98558.91;;;18.94;43.44
75039;BME280;63609;49.992;14.512;2023-07-09T05:39:45;98566.59;;;19.12;43.58
75039;BME280;63609;49.992;14.512;2023-07-09T05:42:12;98570.13;;;19.13;43.19
75039;BME280;63609;49.992;14.512;2023-07-09T05:44:38;98577.66;;;19.38;41.92
75039;BME280;63609;49.992;14.512;2023-07-09T05:47:05;98568.78;;;19.51;41.69
75039;BME280;63609;49.992;14.512;2023-07-09T05:49:35;98567.47;;;19.68;41.81
75039;BME280;63609;49.992;14.512;2023-07-09T05:52:02;98571.97;;;19.83;40.98
75039;BME280;63609;49.992;14.512;2023-07-09T05:54:29;98570.03;;;19.77;39.94
75039;BME280;63609;49.992;14.512;2023-07-09T05:56:56;98572.31;;;20.01;39.18
75039;BME280;63609;49.992;14.512;2023-07-09T05:59:23;98575.56;;;20.24;38.97
75039;BME280;63609;49.992;14.512;2023-07-09T06:01:51;98570.94;;;20.18;39.56
75039;BME280;63609;49.992;14.512;2023-07-09T06:04:17;98567.19;;;19.85;38.78
75039;BME280;63609;49.992;14.512;2023-07-09T06:06:45;98568.72;;;20.35;37.92
75039;BME280;63609;49.992;14.512;2023-07-09T06:09:12;98568.66;;;20.63;38.19
75039;BME280;63609;49.992;14.512;2023-07-09T06:11:39;98570.41;;;20.97;37.08
75039;BME280;63609;49.992;14.512;2023-07-09T06:14:05;98566.25;;;20.94;37.32
75039;BME280;63609;49.992;14.512;2023-07-09T06:16:32;98570.28;;;21.32;37.30
75039;BME280;63609;49.992;14.512;2023-07-09T06:18:59;98570.09;;;21.53;36.47
75039;BME280;63609;49.992;14.512;2023-07-09T06:21:26;98568.56;;;21.04;37.46
75039;BME280;63609;49.992;14.512;2023-07-09T06:23:53;98574.47;;;21.28;37.00
75039;BME280;63609;49.992;14.512;2023-07-09T06:26:20;98569.25;;;21.66;36.24
75039;BME280;63609;49.992;14.512;2023-07-09T06:28:47;98572.38;;;21.89;36.02
75039;BME280;63609;49.992;14.512;2023-07-09T06:31:14;98579.34;;;22.50;35.37
75039;BME280;63609;49.992;14.512;2023-07-09T06:33:41;98581.22;;;22.56;35.11
75039;BME280;63609;49.992;14.512;2023-07-09T06:36:08;98577.94;;;22.14;35.47
75039;BME280;63609;49.992;14.512;2023-07-09T06:38:35;98577.00;;;22.46;35.65
75039;BME280;63609;49.992;14.512;2023-07-09T06:41:02;98566.78;;;22.48;34.93
75039;BME280;63609;49.992;14.512;2023-07-09T06:43:28;98578.84;;;22.66;35.31
75039;BME280;63609;49.992;14.512;2023-07-09T06:45:58;98580.13;;;21.92;34.42
75039;BME280;63609;49.992;14.512;2023-07-09T06:48:27;98581.63;;;22.46;33.56
75039;BME280;63609;49.992;14.512;2023-07-09T06:50:56;98591.91;;;22.37;34.28
75039;BME280;63609;49.992;14.512;2023-07-09T06:53:23;98577.41;;;23.01;33.33
75039;BME280;63609;49.992;14.512;2023-07-09T06:55:51;98583.59;;;23.22;33.22
75039;BME280;63609;49.992;14.512;2023-07-09T06:58:19;98581.09;;;23.14;33.21
75039;BME280;63609;49.992;14.512;2023-07-09T07:00:48;98582.47;;;23.29;33.00
75039;BME280;63609;49.992;14.512;2023-07-09T07:03:16;98584.75;;;23.32;32.40
75039;BME280;63609;49.992;14.512;2023-07-09T07:05:48;98581.59;;;23.60;32.39
75039;BME280;63609;49.992;14.512;2023-07-09T07:08:17;98588.66;;;23.68;31.71
75039;BME280;63609;49.992;14.512;2023-07-09T07:10:45;98580.88;;;23.96;31.75
75039;BME280;63609;49.992;14.512;2023-07-09T07:13:14;98579.13;;;23.84;32.88
75039;BME280;63609;49.992;14.512;2023-07-09T07:15:41;98575.75;;;24.61;31.56
75039;BME280;63609;49.992;14.512;2023-07-09T07:18:08;98573.25;;;24.60;31.51
75039;BME280;63609;49.992;14.512;2023-07-09T07:20:35;98584.38;;;24.22;31.51
75039;BME280;63609;49.992;14.512;2023-07-09T07:23:02;98580.75;;;25.13;30.25
75039;BME280;63609;49.992;14.512;2023-07-09T07:25:29;98579.09;;;24.93;29.70
75039;BME280;63609;49.992;14.512;2023-07-09T07:27:57;98581.56;;;24.83;30.42
75039;BME280;63609;49.992;14.512;2023-07-09T07:30:24;98579.91;;;24.82;30.26
75039;BME280;63609;49.992;14.512;2023-07-09T07:32:52;98576.94;;;25.67;29.16
75039;BME280;63609;49.992;14.512;2023-07-09T07:35:19;98584.81;;;25.87;29.37
75039;BME280;63609;49.992;14.512;2023-07-09T07:37:46;98572.31;;;25.56;28.20
75039;BME280;63609;49.992;14.512;2023-07-09T07:40:13;98572.56;;;25.78;28.29
75039;BME280;63609;49.992;14.512;2023-07-09T07:42:40;98579.78;;;25.49;29.07
75039;BME280;63609;49.992;14.512;2023-07-09T07:45:07;98585.31;;;26.07;28.67
75039;BME280;63609;49.992;14.512;2023-07-09T07:47:35;98578.66;;;26.15;28.61
75039;BME280;63609;49.992;14.512;2023-07-09T07:50:05;98580.75;;;26.48;28.00
75039;BME280;63609;49.992;14.512;2023-07-09T07:52:32;98579.19;;;26.92;27.95
75039;BME280;63609;49.992;14.512;2023-07-09T07:54:59;98580.41;;;26.85;26.47
75039;BME280;63609;49.992;14.512;2023-07-09T07:57:27;98574.84;;;26.68;27.26
75039;BME280;63609;49.992;14.512;2023-07-09T07:59:55;98575.59;;;27.82;26.83
75039;BME280;63609;49.992;14.512;2023-07-09T08:02:22;98577.50;;;28.37;26.30
75039;BME280;63609;49.992;14.512;2023-07-09T08:04:50;98570.75;;;28.28;24.96
75039;BME280;63609;49.992;14.512;2023-07-09T08:07:18;98576.81;;;28.47;25.01
75039;BME280;63609;49.992;14.512;2023-07-09T08:09:46;98565.81;;;28.47;23.15
75039;BME280;63609;49.992;14.512;2023-07-09T08:12:14;98567.06;;;28.00;23.67
75039;BME280;63609;49.992;14.512;2023-07-09T08:14:44;98571.44;;;28.35;23.31
75039;BME280;63609;49.992;14.512;2023-07-09T08:17:11;98572.41;;;28.07;23.84
75039;BME280;63609;49.992;14.512;2023-07-09T08:19:54;98572.25;;;29.01;23.65
75039;BME280;63609;49.992;14.512;2023-07-09T08:22:21;98570.78;;;28.94;23.18
75039;BME280;63609;49.992;14.512;2023-07-09T08:24:49;98562.97;;;28.64;23.00
75039;BME280;63609;49.992;14.512;2023-07-09T08:27:17;98565.59;;;28.32;23.50
75039;BME280;63609;49.992;14.512;2023-07-09T08:29:44;98566.41;;;28.10;24.57
75039;BME280;63609;49.992;14.512;2023-07-09T08:32:12;98561.41;;;28.68;23.78
75039;BME280;63609;49.992;14.512;2023-07-09T08:34:40;98563.06;;;29.17;24.97
75039;BME280;63609;49.992;14.512;2023-07-09T08:37:27;98558.91;;;29.74;22.05
75039;BME280;63609;49.992;14.512;2023-07-09T08:39:54;98561.88;;;29.35;23.19
75039;BME280;63609;49.992;14.512;2023-07-09T08:42:28;98561.44;;;28.95;23.31
75039;BME280;63609;49.992;14.512;2023-07-09T08:50:54;98558.72;;;30.90;21.23
75039;BME280;63609;49.992;14.512;2023-07-09T08:53:32;98557.66;;;31.22;20.83
75039;BME280;63609;49.992;14.512;2023-07-09T08:56:00;98564.91;;;31.38;20.41
75039;BME280;63609;49.992;14.512;2023-07-09T08:58:29;98559.09;;;31.40;19.82
75039;BME280;63609;49.992;14.512;2023-07-09T09:01:02;98551.66;;;31.65;19.52
75039;BME280;63609;49.992;14.512;2023-07-09T09:03:45;98556.84;;;32.13;18.58
75039;BME280;63609;49.992;14.512;2023-07-09T09:06:16;98560.38;;;32.39;18.58
75039;BME280;63609;49.992;14.512;2023-07-09T09:12:00;98554.91;;;32.93;17.80
75039;BME280;63609;49.992;14.512;2023-07-09T09:14:33;98560.72;;;31.91;18.45
75039;BME280;63609;49.992;14.512;2023-07-09T09:17:03;98560.63;;;32.42;17.85
75039;BME280;63609;49.992;14.512;2023-07-09T09:20:03;98558.03;;;32.71;17.24
75039;BME280;63609;49.992;14.512;2023-07-09T09:22:40;98564.53;;;33.01;17.36
75039;BME280;63609;49.992;14.512;2023-07-09T09:25:27;98570.28;;;33.48;17.00
75039;BME280;63609;49.992;14.512;2023-07-09T09:27:55;98564.41;;;33.16;15.24
75039;BME280;63609;49.992;14.512;2023-07-09T09:30:24;98562.00;;;33.48;15.37
75039;BME280;63609;49.992;14.512;2023-07-09T09:33:00;98576.72;;;33.78;15.51
75039;BME280;63609;49.992;14.512;2023-07-09T09:35:37;98567.28;;;33.45;15.34
75039;BME280;63609;49.992;14.512;2023-07-09T09:38:20;98562.34;;;32.98;14.59
75039;BME280;63609;49.992;14.512;2023-07-09T09:40:48;98560.22;;;32.79;15.16
75039;BME280;63609;49.992;14.512;2023-07-09T09:43:18;98561.97;;;32.55;15.31
75039;BME280;63609;49.992;14.512;2023-07-09T09:45:48;98562.44;;;33.95;14.75
75039;BME280;63609;49.992;14.512;2023-07-09T09:48:28;98563.06;;;34.16;14.38
75039;BME280;63609;49.992;14.512;2023-07-09T09:50:56;98561.72;;;34.37;14.59
75039;BME280;63609;49.992;14.512;2023-07-09T09:53:39;98556.69;;;34.15;13.35
75039;BME280;63609;49.992;14.512;2023-07-09T09:56:14;98552.00;;;34.39;13.73
75039;BME280;63609;49.992;14.512;2023-07-09T09:58:41;98559.94;;;34.46;13.10
75039;BME280;63609;49.992;14.512;2023-07-09T10:01:17;98560.91;;;34.07;13.16
75039;BME280;63609;49.992;14.512;2023-07-09T10:03:47;98567.47;;;33.93;12.49
75039;BME280;63609;49.992;14.512;2023-07-09T10:06:40;98557.97;;;33.99;13.04
75039;BME280;63609;49.992;14.512;2023-07-09T10:09:33;98556.56;;;34.49;13.94
75039;BME280;63609;49.992;14.512;2023-07-09T10:12:14;98555.91;;;34.09;14.78
75039;BME280;63609;49.992;14.512;2023-07-09T10:20:53;98563.06;;;34.87;12.82
75039;BME280;63609;49.992;14.512;2023-07-09T10:23:29;98563.91;;;35.25;13.70
75039;BME280;63609;49.992;14.512;2023-07-09T10:26:14;98561.81;;;35.69;13.89
75039;BME280;63609;49.992;14.512;2023-07-09T10:31:40;98562.75;;;33.93;13.81
75039;BME280;63609;49.992;14.512;2023-07-09T10:34:17;98550.41;;;33.02;14.64
75039;BME280;63609;49.992;14.512;2023-07-09T10:39:36;98553.75;;;34.54;14.67
75039;BME280;63609;49.992;14.512;2023-07-09T10:42:04;98563.34;;;35.61;14.65
75039;BME280;63609;49.992;14.512;2023-07-09T10:44:40;98542.41;;;35.82;13.09
75039;BME280;63609;49.992;14.512;2023-07-09T10:47:34;98550.09;;;36.04;13.13
75039;BME280;63609;49.992;14.512;2023-07-09T10:50:05;98543.22;;;36.29;12.46
75039;BME280;63609;49.992;14.512;2023-07-09T10:52:40;98548.66;;;35.74;13.08
75039;BME280;63609;49.992;14.512;2023-07-09T10:55:33;98546.78;;;35.88;13.47
75039;BME280;63609;49.992;14.512;2023-07-09T10:58:22;98551.81;;;34.55;14.07
75039;BME280;63609;49.992;14.512;2023-07-09T11:00:55;98550.31;;;35.24;14.45
75039;BME280;63609;49.992;14.512;2023-07-09T11:03:49;98551.47;;;34.80;13.38
75039;BME280;63609;49.992;14.512;2023-07-09T11:06:38;98545.53;;;33.33;15.16
75039;BME280;63609;49.992;14.512;2023-07-09T11:09:20;98542.94;;;33.76;14.21
75039;BME280;63609;49.992;14.512;2023-07-09T11:11:51;98541.22;;;34.09;14.45
75039;BME280;63609;49.992;14.512;2023-07-09T11:14:33;98540.19;;;35.33;14.94
75039;BME280;63609;49.992;14.512;2023-07-09T11:17:01;98533.84;;;35.65;13.40
75039;BME280;63609;49.992;14.512;2023-07-09T11:19:29;98532.91;;;35.88;13.94
75039;BME280;63609;49.992;14.512;2023-07-09T11:22:04;98531.16;;;35.74;12.69
75039;BME280;63609;49.992;14.512;2023-07-09T11:24:50;98534.13;;;35.63;12.58
75039;BME280;63609;49.992;14.512;2023-07-09T11:27:23;98541.66;;;34.45;13.70
75039;BME280;63609;49.992;14.512;2023-07-09T11:30:04;98533.38;;;34.21;15.56
75039;BME280;63609;49.992;14.512;2023-07-09T11:32:46;98529.16;;;34.48;14.22
75039;BME280;63609;49.992;14.512;2023-07-09T11:35:25;98525.06;;;33.63;15.52
75039;BME280;63609;49.992;14.512;2023-07-09T11:37:53;98518.16;;;32.13;15.54
75039;BME280;63609;49.992;14.512;2023-07-09T11:40:22;98520.03;;;33.65;15.10
75039;BME280;63609;49.992;14.512;2023-07-09T11:42:57;98516.28;;;34.09;14.73
75039;BME280;63609;49.992;14.512;2023-07-09T11:45:31;98521.22;;;35.21;13.92
75039;BME280;63609;49.992;14.512;2023-07-09T11:48:32;98516.53;;;36.01;13.41
75039;BME280;63609;49.992;14.512;2023-07-09T11:51:16;98515.41;;;35.55;12.95
75039;BME280;63609;49.992;14.512;2023-07-09T11:53:50;98509.06;;;35.82;13.58
75039;BME280;63609;49.992;14.512;2023-07-09T11:56:20;98516.09;;;34.72;12.96
75039;BME280;63609;49.992;14.512;2023-07-09T11:58:54;98509.84;;;35.88;13.94
75039;BME280;63609;49.992;14.512;2023-07-09T12:01:35;98502.19;;;36.76;12.46
75039;BME280;63609;49.992;14.512;2023-07-09T12:04:03;98504.59;;;37.05;11.83
75039;BME280;63609;49.992;14.512;2023-07-09T12:06:33;98494.72;;;36.35;12.71
75039;BME280;63609;49.992;14.512;2023-07-09T12:09:00;98497.91;;;33.65;13.90
75039;BME280;63609;49.992;14.512;2023-07-09T12:11:31;98496.28;;;34.79;13.00
75039;BME280;63609;49.992;14.512;2023-07-09T12:14:10;98494.91;;;35.98;12.34
75039;BME280;63609;49.992;14.512;2023-07-09T12:16:42;98495.88;;;35.09;13.57
75039;BME280;63609;49.992;14.512;2023-07-09T12:19:12;98499.00;;;34.65;13.43
75039;BME280;63609;49.992;14.512;2023-07-09T12:21:43;98494.69;;;36.08;11.84
75039;BME280;63609;49.992;14.512;2023-07-09T12:24:27;98494.72;;;34.72;13.60
75039;BME280;63609;49.992;14.512;2023-07-09T12:27:00;98493.72;;;35.71;12.98
75039;BME280;63609;49.992;14.512;2023-07-09T12:29:34;98489.16;;;35.94;12.35
75039;BME280;63609;49.992;14.512;2023-07-09T12:32:12;98489.50;;;35.41;13.70
75039;BME280;63609;49.992;14.512;2023-07-09T12:34:40;98484.97;;;35.13;12.33
75039;BME280;63609;49.992;14.512;2023-07-09T12:37:13;98480.81;;;36.08;11.68
75039;BME280;63609;49.992;14.512;2023-07-09T12:39:41;98482.75;;;34.58;13.27
75039;BME280;63609;49.992;14.512;2023-07-09T12:42:15;98483.09;;;35.27;13.30
75039;BME280;63609;49.992;14.512;2023-07-09T12:44:43;98473.66;;;34.90;13.00
75039;BME280;63609;49.992;14.512;2023-07-09T12:47:14;98465.59;;;34.56;12.98
75039;BME280;63609;49.992;14.512;2023-07-09T12:49:44;98472.38;;;35.20;12.70
75039;BME280;63609;49.992;14.512;2023-07-09T12:52:17;98458.22;;;33.99;13.15
75039;BME280;63609;49.992;14.512;2023-07-09T12:54:58;98458.06;;;34.94;12.83
75039;BME280;63609;49.992;14.512;2023-07-09T12:57:27;98447.22;;;35.77;13.13
75039;BME280;63609;49.992;14.512;2023-07-09T12:59:57;98447.66;;;36.39;12.51
75039;BME280;63609;49.992;14.512;2023-07-09T13:02:27;98445.66;;;37.25;11.22
75039;BME280;63609;49.992;14.512;2023-07-09T13:05:15;98437.94;;;37.53;10.30
75039;BME280;63609;49.992;14.512;2023-07-09T13:07:58;98439.69;;;37.71;11.27
75039;BME280;63609;49.992;14.512;2023-07-09T13:10:29;98444.03;;;37.95;10.90
75039;BME280;63609;49.992;14.512;2023-07-09T13:13:01;98435.78;;;38.21;10.73
75039;BME280;63609;49.992;14.512;2023-07-09T13:15:29;98438.84;;;36.59;11.46
75039;BME280;63609;49.992;14.512;2023-07-09T13:18:02;98436.06;;;36.95;11.96
75039;BME280;63609;49.992;14.512;2023-07-09T13:20:32;98436.59;;;37.20;11.87
75039;BME280;63609;49.992;14.512;2023-07-09T13:23:00;98435.47;;;37.52;11.24
75039;BME280;63609;49.992;14.512;2023-07-09T13:25:28;98436.13;;;37.49;11.16
75039;BME280;63609;49.992;14.512;2023-07-09T13:28:29;98441.31;;;36.97;11.78
75039;BME280;63609;49.992;14.512;2023-07-09T13:31:00;98433.53;;;37.30;11.52
75039;BME280;63609;49.992;14.512;2023-07-09T13:33:28;98435.97;;;37.54;10.86